sensor_id;sensor_type;location;lat;lon;timestamp;pressure;altitude;pressure_sealevel;temperature;humidity
70374;BME280;57792;49.198;7.890;2022-08-01T00:00:48;98849.47;;;19.97;51.83
70374;BME280;57792;49.198;7.890;2022-08-01T00:01:48;98844.84;;;20.10;50.92
70374;BME280;57792;49.198;7.890;2022-08-01T00:02:49;98839.69;;;20.18;51.04
70374;BME280;57792;49.198;7.890;2022-08-01T00:03:49;98851.03;;;20.23;51.24
70374;BME280;57792;49.198;7.890;2022-08-01T00:04:49;98849.31;;;20.22;51.02
70374;BME280;57792;49.198;7.890;2022-08-01T00:05:50;98843.88;;;20.22;51.19
70374;BME280;57792;49.198;7.890;2022-08-01T00:06:50;98848.81;;;20.06;52.67
70374;BME280;57792;49.198;7.890;2022-08-01T00:07:50;98854.44;;;20.03;51.64
70374;BME280;57792;49.198;7.890;2022-08-01T00:08:51;98846.31;;;20.14;51.31
70374;BME280;57792;49.198;7.890;2022-08-01T00:09:51;98841.53;;;20.18;51.26
70374;BME280;57792;49.198;7.890;2022-08-01T00:10:52;98852.75;;;20.24;51.26
70374;BME280;57792;49.198;7.890;2022-08-01T00:11:52;98851.63;;;20.04;52.85
70374;BME280;57792;49.198;7.890;2022-08-01T00:12:52;98856.53;;;20.10;51.70
70374;BME280;57792;49.198;7.890;2022-08-01T00:13:53;98852.50;;;20.16;51.52
70374;BME280;57792;49.198;7.890;2022-08-01T00:14:53;98857.44;;;20.22;51.60
70374;BME280;57792;49.198;7.890;2022-08-01T00:15:54;98853.63;;;20.25;51.32
70374;BME280;57792;49.198;7.890;2022-08-01T00:16:54;98850.78;;;20.26;51.24
70374;BME280;57792;49.198;7.890;2022-08-01T00:17:54;98848.94;;;20.27;51.37
70374;BME280;57792;49.198;7.890;2022-08-01T00:18:55;98847.97;;;20.28;51.22
70374;BME280;57792;49.198;7.890;2022-08-01T00:19:55;98855.97;;;20.29;51.41
70374;BME280;57792;49.198;7.890;2022-08-01T00:20:55;98852.28;;;20.30;51.22
70374;BME280;57792;49.198;7.890;2022-08-01T00:21:56;98860.72;;;20.15;52.62
70374;BME280;57792;49.198;7.890;2022-08-01T00:22:56;98853.97;;;20.20;51.97
70374;BME280;57792;49.198;7.890;2022-08-01T00:23:57;98857.06;;;20.27;51.60
70374;BME280;57792;49.198;7.890;2022-08-01T00:24:57;98863.69;;;20.23;51.98
70374;BME280;57792;49.198;7.890;2022-08-01T00:25:57;98863.09;;;20.30;52.13
70374;BME280;57792;49.198;7.890;2022-08-01T00:26:58;98852.50;;;20.27;51.74
70374;BME280;57792;49.198;7.890;2022-08-01T00:27:58;98861.25;;;20.31;51.84
70374;BME280;57792;49.198;7.890;2022-08-01T00:28:58;98856.94;;;20.28;52.00
70374;BME280;57792;49.198;7.890;2022-08-01T00:29:59;98856.31;;;20.25;52.28
70374;BME280;57792;49.198;7.890;2022-08-01T00:30:59;98858.03;;;20.26;52.27
70374;BME280;57792;49.198;7.890;2022-08-01T00:32:00;98856.81;;;20.30;51.69
70374;BME280;57792;49.198;7.890;2022-08-01T00:33:00;98851.66;;;20.27;52.32
70374;BME280;57792;49.198;7.890;2022-08-01T00:34:01;98853.13;;;20.31;51.74
70374;BME280;57792;49.198;7.890;2022-08-01T00:35:01;98857.22;;;20.36;52.05
70374;BME280;57792;49.198;7.890;2022-08-01T00:36:02;98843.03;;;20.33;52.00
70374;BME280;57792;49.198;7.890;2022-08-01T00:37:02;98862.50;;;20.38;51.86
70374;BME280;57792;49.198;7.890;2022-08-01T00:38:03;98855.34;;;20.37;52.04
70374;BME280;57792;49.198;7.890;2022-08-01T00:39:03;98857.19;;;20.25;53.61
70374;BME280;57792;49.198;7.890;2022-08-01T00:40:05;98861.47;;;20.17;53.64
70374;BME280;57792;49.198;7.890;2022-08-01T00:41:05;98861.00;;;20.23;52.52
70374;BME280;57792;49.198;7.890;2022-08-01T00:42:07;98858.78;;;20.28;52.63
70374;BME280;57792;49.198;7.890;2022-08-01T00:43:08;98860.16;;;20.33;52.19
70374;BME280;57792;49.198;7.890;2022-08-01T00:44:09;98853.88;;;20.33;52.37
70374;BME280;57792;49.198;7.890;2022-08-01T00:45:10;98860.91;;;20.35;52.02
70374;BME280;57792;49.198;7.890;2022-08-01T00:46:11;98863.94;;;20.42;51.90
70374;BME280;57792;49.198;7.890;2022-08-01T00:47:11;98855.25;;;20.38;52.72
70374;BME280;57792;49.198;7.890;2022-08-01T00:48:12;98861.41;;;20.40;52.16
70374;BME280;57792;49.198;7.890;2022-08-01T00:49:12;98854.63;;;20.35;52.36
70374;BME280;57792;49.198;7.890;2022-08-01T00:50:13;98854.63;;;20.35;52.28
70374;BME280;57792;49.198;7.890;2022-08-01T00:51:14;98860.28;;;20.32;52.67
70374;BME280;57792;49.198;7.890;2022-08-01T00:52:15;98852.50;;;20.27;52.90
70374;BME280;57792;49.198;7.890;2022-08-01T00:53:15;98856.94;;;20.28;52.37
70374;BME280;57792;49.198;7.890;2022-08-01T00:54:16;98848.81;;;20.28;52.68
70374;BME280;57792;49.198;7.890;2022-08-01T00:55:18;98855.22;;;20.27;52.81
70374;BME280;57792;49.198;7.890;2022-08-01T00:56:20;98849.81;;;20.27;52.88
70374;BME280;57792;49.198;7.890;2022-08-01T00:57:21;98855.47;;;20.24;52.93
70374;BME280;57792;49.198;7.890;2022-08-01T00:58:22;98854.22;;;20.17;53.49
70374;BME280;57792;49.198;7.890;2022-08-01T00:59:23;98855.94;;;20.18;52.87
70374;BME280;57792;49.198;7.890;2022-08-01T01:00:24;98850.75;;;20.15;52.95
70374;BME280;57792;49.198;7.890;2022-08-01T01:01:24;98855.19;;;20.16;52.86
70374;BME280;57792;49.198;7.890;2022-08-01T01:02:25;98857.03;;;20.16;53.42
70374;BME280;57792;49.198;7.890;2022-08-01T01:03:26;98855.06;;;20.18;53.19
70374;BME280;57792;49.198;7.890;2022-08-01T01:04:27;98852.97;;;20.10;53.49
70374;BME280;57792;49.198;7.890;2022-08-01T01:05:27;98858.88;;;20.15;53.34
70374;BME280;57792;49.198;7.890;2022-08-01T01:06:40;98856.19;;;20.04;54.76
70374;BME280;57792;49.198;7.890;2022-08-01T01:07:53;98854.78;;;19.98;54.67
70374;BME280;57792;49.198;7.890;2022-08-01T01:10:48;98854.97;;;19.84;54.53
70374;BME280;57792;49.198;7.890;2022-08-01T01:13:18;98863.72;;;19.88;54.50
70374;BME280;57792;49.198;7.890;2022-08-01T01:14:40;98863.44;;;19.79;55.51
70374;BME280;57792;49.198;7.890;2022-08-01T01:15:51;98856.19;;;19.80;54.61
70374;BME280;57792;49.198;7.890;2022-08-01T01:16:53;98861.47;;;19.82;54.02
70374;BME280;57792;49.198;7.890;2022-08-01T01:18:01;98851.53;;;19.82;54.75
70374;BME280;57792;49.198;7.890;2022-08-01T01:19:04;98863.09;;;19.84;54.27
70374;BME280;57792;49.198;7.890;2022-08-01T01:20:08;98856.81;;;19.84;54.67
70374;BME280;57792;49.198;7.890;2022-08-01T01:22:47;98856.16;;;19.69;55.84
70374;BME280;57792;49.198;7.890;2022-08-01T01:26:45;98833.63;;;19.57;55.90
70374;BME280;57792;49.198;7.890;2022-08-01T01:27:59;98841.50;;;19.60;55.75
70374;BME280;57792;49.198;7.890;2022-08-01T01:29:17;98850.19;;;19.53;55.76
70374;BME280;57792;49.198;7.890;2022-08-01T01:30:24;98857.31;;;19.54;55.40
70374;BME280;57792;49.198;7.890;2022-08-01T01:31:27;98847.59;;;19.51;54.96
70374;BME280;57792;49.198;7.890;2022-08-01T01:32:32;98856.69;;;19.50;55.09
70374;BME280;57792;49.198;7.890;2022-08-01T01:33:36;98849.78;;;19.46;55.48
70374;BME280;57792;49.198;7.890;2022-08-01T01:34:40;98847.56;;;19.40;55.37
70374;BME280;57792;49.198;7.890;2022-08-01T01:35:46;98853.63;;;19.43;55.80
70374;BME280;57792;49.198;7.890;2022-08-01T01:36:48;98855.91;;;19.37;55.29
70374;BME280;57792;49.198;7.890;2022-08-01T01:37:56;98850.41;;;19.38;55.70
70374;BME280;57792;49.198;7.890;2022-08-01T01:38:58;98860.34;;;19.38;55.37
70374;BME280;57792;49.198;7.890;2022-08-01T01:40:01;98848.16;;;19.32;55.95
70374;BME280;57792;49.198;7.890;2022-08-01T01:41:03;98852.47;;;19.35;56.14
70374;BME280;57792;49.198;7.890;2022-08-01T01:42:05;98850.09;;;19.30;55.73
70374;BME280;57792;49.198;7.890;2022-08-01T01:43:10;98850.34;;;19.27;56.88
70374;BME280;57792;49.198;7.890;2022-08-01T01:44:11;98853.03;;;19.27;55.77
70374;BME280;57792;49.198;7.890;2022-08-01T01:45:13;98844.69;;;19.30;56.17
70374;BME280;57792;49.198;7.890;2022-08-01T01:46:17;98848.38;;;19.29;56.50
70374;BME280;57792;49.198;7.890;2022-08-01T01:47:17;98855.84;;;19.26;55.67
70374;BME280;57792;49.198;7.890;2022-08-01T01:48:19;98860.16;;;19.28;55.90
70374;BME280;57792;49.198;7.890;2022-08-01T01:49:23;98854.00;;;19.13;56.95
70374;BME280;57792;49.198;7.890;2022-08-01T01:50:25;98854.00;;;19.13;56.34
70374;BME280;57792;49.198;7.890;2022-08-01T01:51:27;98848.00;;;19.10;56.66
70374;BME280;57792;49.198;7.890;2022-08-01T01:52:29;98852.56;;;19.09;56.48
70374;BME280;57792;49.198;7.890;2022-08-01T01:53:33;98856.00;;;19.11;56.36
70374;BME280;57792;49.198;7.890;2022-08-01T01:54:40;98853.00;;;19.03;57.38
70374;BME280;57792;49.198;7.890;2022-08-01T01:55:45;98859.50;;;19.01;57.20
70374;BME280;57792;49.198;7.890;2022-08-01T01:56:47;98863.94;;;18.89;57.09
70374;BME280;57792;49.198;7.890;2022-08-01T01:57:52;98857.72;;;18.76;58.30
70374;BME280;57792;49.198;7.890;2022-08-01T01:58:56;98853.00;;;18.67;57.67
70374;BME280;57792;49.198;7.890;2022-08-01T01:59:59;98858.81;;;18.73;57.35
70374;BME280;57792;49.198;7.890;2022-08-01T02:01:02;98855.59;;;18.68;57.57
70374;BME280;57792;49.198;7.890;2022-08-01T02:02:04;98856.88;;;18.75;57.95
70374;BME280;57792;49.198;7.890;2022-08-01T02:03:07;98856.88;;;18.75;57.81
70374;BME280;57792;49.198;7.890;2022-08-01T02:04:09;98855.16;;;18.74;57.88
70374;BME280;57792;49.198;7.890;2022-08-01T02:05:11;98846.72;;;18.66;58.23
70374;BME280;57792;49.198;7.890;2022-08-01T02:06:14;98858.28;;;18.68;57.96
70374;BME280;57792;49.198;7.890;2022-08-01T02:07:21;98857.75;;;18.63;58.77
70374;BME280;57792;49.198;7.890;2022-08-01T02:08:23;98859.69;;;18.61;57.96
70374;BME280;57792;49.198;7.890;2022-08-01T02:09:26;98854.41;;;18.60;58.13
70374;BME280;57792;49.198;7.890;2022-08-01T02:10:28;98862.72;;;18.57;57.80
70374;BME280;57792;49.198;7.890;2022-08-01T02:11:29;98862.72;;;18.57;57.91
70374;BME280;57792;49.198;7.890;2022-08-01T02:12:33;98863.25;;;18.49;58.91
70374;BME280;57792;49.198;7.890;2022-08-01T02:13:36;98868.22;;;18.55;58.47
70374;BME280;57792;49.198;7.890;2022-08-01T02:14:38;98858.41;;;18.54;58.33
70374;BME280;57792;49.198;7.890;2022-08-01T02:15:40;98860.47;;;18.51;58.30
70374;BME280;57792;49.198;7.890;2022-08-01T02:16:42;98870.19;;;18.53;58.31
70374;BME280;57792;49.198;7.890;2022-08-01T02:17:47;98865.09;;;18.49;59.13
70374;BME280;57792;49.198;7.890;2022-08-01T02:18:48;98852.47;;;18.49;58.46
70374;BME280;57792;49.198;7.890;2022-08-01T02:19:49;98858.22;;;18.44;58.79
70374;BME280;57792;49.198;7.890;2022-08-01T02:20:52;98864.81;;;18.40;59.63
70374;BME280;57792;49.198;7.890;2022-08-01T02:21:57;98866.75;;;18.38;59.24
70374;BME280;57792;49.198;7.890;2022-08-01T02:23:08;98854.41;;;18.34;59.83
70374;BME280;57792;49.198;7.890;2022-08-01T02:24:19;98861.09;;;18.29;59.52
70374;BME280;57792;49.198;7.890;2022-08-01T02:25:25;98854.72;;;18.30;58.98
70374;BME280;57792;49.198;7.890;2022-08-01T02:26:27;98859.16;;;18.31;58.95
70374;BME280;57792;49.198;7.890;2022-08-01T02:27:50;98855.38;;;18.21;60.31
70374;BME280;57792;49.198;7.890;2022-08-01T02:28:57;98854.94;;;18.27;59.59
70374;BME280;57792;49.198;7.890;2022-08-01T02:30:05;98855.38;;;18.21;60.02
70374;BME280;57792;49.198;7.890;2022-08-01T02:31:12;98854.31;;;18.10;60.65
70374;BME280;57792;49.198;7.890;2022-08-01T02:32:20;98853.47;;;18.10;60.50
70374;BME280;57792;49.198;7.890;2022-08-01T02:33:43;98847.06;;;17.98;61.23
70374;BME280;57792;49.198;7.890;2022-08-01T02:34:46;98844.81;;;18.05;59.67
70374;BME280;57792;49.198;7.890;2022-08-01T02:35:54;98855.50;;;18.06;60.84
70374;BME280;57792;49.198;7.890;2022-08-01T02:36:58;98847.19;;;18.09;59.82
70374;BME280;57792;49.198;7.890;2022-08-01T02:38:01;98861.97;;;18.04;60.90
70374;BME280;57792;49.198;7.890;2022-08-01T02:39:08;98854.72;;;17.79;61.25
70374;BME280;57792;49.198;7.890;2022-08-01T02:40:10;98864.00;;;17.75;61.34
70374;BME280;57792;49.198;7.890;2022-08-01T02:41:20;98855.50;;;17.81;61.43
70374;BME280;57792;49.198;7.890;2022-08-01T02:42:23;98869.50;;;17.86;60.30
70374;BME280;57792;49.198;7.890;2022-08-01T02:43:27;98863.03;;;17.89;60.55
70374;BME280;57792;49.198;7.890;2022-08-01T02:44:31;98872.75;;;17.91;59.96
70374;BME280;57792;49.198;7.890;2022-08-01T02:45:35;98874.03;;;17.86;60.91
70374;BME280;57792;49.198;7.890;2022-08-01T02:46:48;98864.00;;;17.75;61.63
70374;BME280;57792;49.198;7.890;2022-08-01T02:47:49;98863.69;;;17.79;60.52
70374;BME280;57792;49.198;7.890;2022-08-01T02:48:52;98872.53;;;17.82;60.95
70374;BME280;57792;49.198;7.890;2022-08-01T02:49:54;98880.28;;;17.73;61.48
70374;BME280;57792;49.198;7.890;2022-08-01T02:50:58;98886.09;;;17.67;62.16
70374;BME280;57792;49.198;7.890;2022-08-01T02:52:04;98882.16;;;17.59;62.34
70374;BME280;57792;49.198;7.890;2022-08-01T02:53:07;98876.88;;;17.57;61.62
70374;BME280;57792;49.198;7.890;2022-08-01T02:54:11;98885.88;;;17.70;60.91
70374;BME280;57792;49.198;7.890;2022-08-01T02:55:11;98882.97;;;17.73;60.93
70374;BME280;57792;49.198;7.890;2022-08-01T02:56:13;98885.47;;;17.76;60.95
70374;BME280;57792;49.198;7.890;2022-08-01T02:57:16;98876.41;;;17.77;60.73
70374;BME280;57792;49.198;7.890;2022-08-01T02:58:19;98877.06;;;17.81;60.74
70374;BME280;57792;49.198;7.890;2022-08-01T02:59:21;98877.78;;;17.83;60.74
70374;BME280;57792;49.198;7.890;2022-08-01T03:00:26;98880.72;;;17.80;60.28
70374;BME280;57792;49.198;7.890;2022-08-01T03:01:28;98877.06;;;17.81;60.74
70374;BME280;57792;49.198;7.890;2022-08-01T03:02:29;98888.47;;;17.72;61.32
70374;BME280;57792;49.198;7.890;2022-08-01T03:03:31;98884.47;;;17.65;61.19
70374;BME280;57792;49.198;7.890;2022-08-01T03:04:34;98887.81;;;17.68;61.09
70374;BME280;57792;49.198;7.890;2022-08-01T03:05:37;98883.50;;;17.66;61.40
70374;BME280;57792;49.198;7.890;2022-08-01T03:06:40;98882.72;;;17.64;61.08
70374;BME280;57792;49.198;7.890;2022-08-01T03:07:41;98890.72;;;17.65;61.08
70374;BME280;57792;49.198;7.890;2022-08-01T03:08:42;98885.63;;;17.61;61.30
70374;BME280;57792;49.198;7.890;2022-08-01T03:09:45;98879.06;;;17.65;60.88
70374;BME280;57792;49.198;7.890;2022-08-01T03:10:46;98880.78;;;17.66;61.05
70374;BME280;57792;49.198;7.890;2022-08-01T03:11:49;98876.56;;;17.62;61.32
70374;BME280;57792;49.198;7.890;2022-08-01T03:12:50;98869.56;;;17.59;61.05
70374;BME280;57792;49.198;7.890;2022-08-01T03:13:52;98871.28;;;17.60;61.30
70374;BME280;57792;49.198;7.890;2022-08-01T03:14:55;98871.28;;;17.60;61.51
70374;BME280;57792;49.198;7.890;2022-08-01T03:15:57;98873.53;;;17.54;61.44
70374;BME280;57792;49.198;7.890;2022-08-01T03:16:59;98873.63;;;17.52;61.83
70374;BME280;57792;49.198;7.890;2022-08-01T03:18:01;98879.63;;;17.43;61.59
70374;BME280;57792;49.198;7.890;2022-08-01T03:19:03;98883.19;;;17.43;61.69
70374;BME280;57792;49.198;7.890;2022-08-01T03:20:05;98871.75;;;17.40;62.05
70374;BME280;57792;49.198;7.890;2022-08-01T03:21:06;98879.63;;;17.43;61.54
70374;BME280;57792;49.198;7.890;2022-08-01T03:22:09;98874.06;;;17.32;62.67
70374;BME280;57792;49.198;7.890;2022-08-01T03:23:12;98881.13;;;17.20;63.46
70374;BME280;57792;49.198;7.890;2022-08-01T03:24:13;98873.97;;;17.06;63.39
70374;BME280;57792;49.198;7.890;2022-08-01T03:25:15;98884.03;;;17.17;62.85
70374;BME280;57792;49.198;7.890;2022-08-01T03:26:17;98887.28;;;17.22;62.53
70374;BME280;57792;49.198;7.890;2022-08-01T03:27:22;98882.97;;;17.20;63.39
70374;BME280;57792;49.198;7.890;2022-08-01T03:28:25;98887.28;;;17.22;62.62
70374;BME280;57792;49.198;7.890;2022-08-01T03:29:27;98890.09;;;17.21;62.97
70374;BME280;57792;49.198;7.890;2022-08-01T03:30:31;98892.00;;;17.19;62.93
70374;BME280;57792;49.198;7.890;2022-08-01T03:31:35;98889.13;;;17.22;63.05
70374;BME280;57792;49.198;7.890;2022-08-01T03:32:36;98883.72;;;17.22;62.78
70374;BME280;57792;49.198;7.890;2022-08-01T03:33:37;98887.19;;;17.24;62.51
70374;BME280;57792;49.198;7.890;2022-08-01T03:34:37;98894.31;;;17.25;62.76
70374;BME280;57792;49.198;7.890;2022-08-01T03:35:44;98891.50;;;17.26;63.32
70374;BME280;57792;49.198;7.890;2022-08-01T03:37:09;98887.50;;;17.19;64.05
70374;BME280;57792;49.198;7.890;2022-08-01T03:38:13;98889.59;;;17.28;63.54
70374;BME280;57792;49.198;7.890;2022-08-01T03:39:19;98884.41;;;17.25;63.13
70374;BME280;57792;49.198;7.890;2022-08-01T03:41:39;98892.75;;;17.35;62.62
70374;BME280;57792;49.198;7.890;2022-08-01T03:42:44;98894.66;;;17.33;63.32
70374;BME280;57792;49.198;7.890;2022-08-01T03:44:08;98899.91;;;17.22;64.22
70374;BME280;57792;49.198;7.890;2022-08-01T03:45:18;98894.88;;;17.30;63.56
70374;BME280;57792;49.198;7.890;2022-08-01T03:46:42;98894.41;;;17.23;64.18
70374;BME280;57792;49.198;7.890;2022-08-01T03:47:44;98883.88;;;17.33;62.77
70374;BME280;57792;49.198;7.890;2022-08-01T03:48:48;98890.72;;;17.38;62.97
70374;BME280;57792;49.198;7.890;2022-08-01T03:49:49;98889.53;;;17.42;62.87
70374;BME280;57792;49.198;7.890;2022-08-01T03:50:52;98888.41;;;17.32;63.42
70374;BME280;57792;49.198;7.890;2022-08-01T03:51:53;98884.34;;;17.39;63.03
70374;BME280;57792;49.198;7.890;2022-08-01T03:52:57;98888.88;;;17.39;63.51
70374;BME280;57792;49.198;7.890;2022-08-01T03:54:00;98891.28;;;17.43;63.06
70374;BME280;57792;49.198;7.890;2022-08-01T03:55:05;98896.88;;;17.40;63.77
70374;BME280;57792;49.198;7.890;2022-08-01T03:56:10;98897.53;;;17.44;63.46
70374;BME280;57792;49.198;7.890;2022-08-01T03:57:11;98889.53;;;17.42;62.95
70374;BME280;57792;49.198;7.890;2022-08-01T03:58:12;98906.19;;;17.49;62.85
70374;BME280;57792;49.198;7.890;2022-08-01T03:59:14;98894.72;;;17.45;63.38
70374;BME280;57792;49.198;7.890;2022-08-01T04:00:16;98897.25;;;17.34;64.45
70374;BME280;57792;49.198;7.890;2022-08-01T04:01:19;98889.25;;;17.47;62.94
70374;BME280;57792;49.198;7.890;2022-08-01T04:02:20;98890.84;;;17.50;62.96
70374;BME280;57792;49.198;7.890;2022-08-01T04:03:22;98889.53;;;17.42;63.52
70374;BME280;57792;49.198;7.890;2022-08-01T04:04:23;98892.69;;;17.49;63.13
70374;BME280;57792;49.198;7.890;2022-08-01T04:05:24;98888.94;;;17.52;63.00
70374;BME280;57792;49.198;7.890;2022-08-01T04:06:25;98886.91;;;17.55;62.75
70374;BME280;57792;49.198;7.890;2022-08-01T04:07:31;98890.16;;;17.60;62.83
70374;BME280;57792;49.198;7.890;2022-08-01T04:08:36;98884.66;;;17.62;62.89
70374;BME280;57792;49.198;7.890;2022-08-01T04:09:36;98892.75;;;17.62;62.50
70374;BME280;57792;49.198;7.890;2022-08-01T04:10:37;98888.00;;;17.65;62.54
70374;BME280;57792;49.198;7.890;2022-08-01T04:11:39;98892.25;;;17.69;62.57
70374;BME280;57792;49.198;7.890;2022-08-01T04:12:40;98888.78;;;17.67;62.86
70374;BME280;57792;49.198;7.890;2022-08-01T04:13:40;98887.22;;;17.51;63.49
70374;BME280;57792;49.198;7.890;2022-08-01T04:14:40;98889.28;;;17.60;63.09
70374;BME280;57792;49.198;7.890;2022-08-01T04:15:41;98896.16;;;17.51;63.55
70374;BME280;57792;49.198;7.890;2022-08-01T04:16:41;98901.50;;;17.38;63.88
70374;BME280;57792;49.198;7.890;2022-08-01T04:17:42;98898.09;;;17.49;63.40
70374;BME280;57792;49.198;7.890;2022-08-01T04:18:42;98894.13;;;17.55;63.47
70374;BME280;57792;49.198;7.890;2022-08-01T04:19:43;98894.47;;;17.63;62.98
70374;BME280;57792;49.198;7.890;2022-08-01T04:20:46;98895.91;;;17.68;63.00
70374;BME280;57792;49.198;7.890;2022-08-01T04:21:47;98893.50;;;17.64;63.00
70374;BME280;57792;49.198;7.890;2022-08-01T04:22:47;98887.91;;;17.67;62.70
70374;BME280;57792;49.198;7.890;2022-08-01T04:23:49;98894.72;;;17.72;62.49
70374;BME280;57792;49.198;7.890;2022-08-01T04:24:56;98895.59;;;17.73;63.05
70374;BME280;57792;49.198;7.890;2022-08-01T04:25:59;98895.38;;;17.76;62.64
70374;BME280;57792;49.198;7.890;2022-08-01T04:27:02;98897.88;;;17.79;62.51
70374;BME280;57792;49.198;7.890;2022-08-01T04:28:07;98899.38;;;17.83;62.44
70374;BME280;57792;49.198;7.890;2022-08-01T04:29:11;98901.09;;;17.84;62.43
70374;BME280;57792;49.198;7.890;2022-08-01T04:30:16;98899.25;;;17.85;62.78
70374;BME280;57792;49.198;7.890;2022-08-01T04:31:18;98898.50;;;17.83;62.50
70374;BME280;57792;49.198;7.890;2022-08-01T04:32:21;98905.06;;;17.66;63.22
70374;BME280;57792;49.198;7.890;2022-08-01T04:33:23;98900.88;;;17.74;62.83
70374;BME280;57792;49.198;7.890;2022-08-01T04:34:28;98900.78;;;17.76;62.95
70374;BME280;57792;49.198;7.890;2022-08-01T04:35:31;98916.50;;;17.82;62.57
70374;BME280;57792;49.198;7.890;2022-08-01T04:36:35;98909.09;;;17.86;62.93
70374;BME280;57792;49.198;7.890;2022-08-01T04:37:37;98905.53;;;17.85;62.44
70374;BME280;57792;49.198;7.890;2022-08-01T04:38:40;98907.81;;;17.78;63.04
70374;BME280;57792;49.198;7.890;2022-08-01T04:39:42;98908.00;;;17.75;63.37
70374;BME280;57792;49.198;7.890;2022-08-01T04:40:45;98908.72;;;17.65;63.46
70374;BME280;57792;49.198;7.890;2022-08-01T04:41:46;98914.91;;;17.79;62.80
70374;BME280;57792;49.198;7.890;2022-08-01T04:42:48;98918.59;;;17.91;62.34
70374;BME280;57792;49.198;7.890;2022-08-01T04:43:49;98913.31;;;17.90;62.62
70374;BME280;57792;49.198;7.890;2022-08-01T04:44:51;98907.50;;;17.96;62.49
70374;BME280;57792;49.198;7.890;2022-08-01T04:45:52;98911.50;;;18.03;62.38
70374;BME280;57792;49.198;7.890;2022-08-01T04:46:54;98912.25;;;18.05;62.11
70374;BME280;57792;49.198;7.890;2022-08-01T04:47:56;98911.50;;;18.03;62.29
70374;BME280;57792;49.198;7.890;2022-08-01T04:48:58;98912.81;;;18.10;62.22
70374;BME280;57792;49.198;7.890;2022-08-01T04:49:58;98900.41;;;18.07;61.98
70374;BME280;57792;49.198;7.890;2022-08-01T04:50:59;98905.59;;;18.10;62.06
70374;BME280;57792;49.198;7.890;2022-08-01T04:52:01;98918.19;;;18.23;61.88
70374;BME280;57792;49.198;7.890;2022-08-01T04:53:01;98918.00;;;18.13;62.30
70374;BME280;57792;49.198;7.890;2022-08-01T04:54:03;98921.00;;;18.08;62.66
70374;BME280;57792;49.198;7.890;2022-08-01T04:55:04;98919.19;;;18.09;62.40
70374;BME280;57792;49.198;7.890;2022-08-01T04:56:08;98913.34;;;18.15;62.35
70374;BME280;57792;49.198;7.890;2022-08-01T04:57:09;98920.16;;;18.08;62.87
70374;BME280;57792;49.198;7.890;2022-08-01T04:58:10;98910.41;;;17.93;63.00
70374;BME280;57792;49.198;7.890;2022-08-01T04:59:11;98914.09;;;18.04;62.83
70374;BME280;57792;49.198;7.890;2022-08-01T05:00:30;98913.53;;;17.99;62.94
70374;BME280;57792;49.198;7.890;2022-08-01T05:01:31;98907.72;;;18.05;62.82
70374;BME280;57792;49.198;7.890;2022-08-01T05:02:31;98913.88;;;18.07;63.01
70374;BME280;57792;49.198;7.890;2022-08-01T05:03:32;98913.78;;;18.09;62.75
70374;BME280;57792;49.198;7.890;2022-08-01T05:04:32;98905.44;;;17.99;63.37
70374;BME280;57792;49.198;7.890;2022-08-01T05:05:33;98908.78;;;17.90;63.86
70374;BME280;57792;49.198;7.890;2022-08-01T05:06:33;98908.75;;;17.77;64.30
70374;BME280;57792;49.198;7.890;2022-08-01T05:07:34;98910.25;;;17.69;64.56
70374;BME280;57792;49.198;7.890;2022-08-01T05:08:36;98917.72;;;17.91;63.82
70374;BME280;57792;49.198;7.890;2022-08-01T05:09:37;98912.25;;;18.18;63.00
70374;BME280;57792;49.198;7.890;2022-08-01T05:10:37;98909.13;;;18.24;62.91
70374;BME280;57792;49.198;7.890;2022-08-01T05:11:38;98913.25;;;18.29;62.76
70374;BME280;57792;49.198;7.890;2022-08-01T05:12:38;98904.81;;;18.08;63.67
70374;BME280;57792;49.198;7.890;2022-08-01T05:13:38;98914.06;;;17.92;64.33
70374;BME280;57792;49.198;7.890;2022-08-01T05:14:39;98909.06;;;17.73;64.94
70374;BME280;57792;49.198;7.890;2022-08-01T05:15:40;98897.06;;;17.64;65.38
70374;BME280;57792;49.198;7.890;2022-08-01T05:16:41;98912.34;;;17.78;64.82
70374;BME280;57792;49.198;7.890;2022-08-01T05:17:42;98902.75;;;17.99;64.14
70374;BME280;57792;49.198;7.890;2022-08-01T05:18:42;98907.41;;;18.10;63.76
70374;BME280;57792;49.198;7.890;2022-08-01T05:19:42;98903.84;;;18.35;63.17
70374;BME280;57792;49.198;7.890;2022-08-01T05:20:43;98902.38;;;18.43;63.24
70374;BME280;57792;49.198;7.890;2022-08-01T05:21:43;98902.78;;;18.63;62.57
70374;BME280;57792;49.198;7.890;2022-08-01T05:22:43;98902.13;;;18.72;62.31
70374;BME280;57792;49.198;7.890;2022-08-01T05:23:44;98904.84;;;18.59;62.94
70374;BME280;57792;49.198;7.890;2022-08-01T05:24:44;98903.69;;;18.38;63.66
70374;BME280;57792;49.198;7.890;2022-08-01T05:25:46;98906.03;;;18.55;63.02
70374;BME280;57792;49.198;7.890;2022-08-01T05:26:46;98891.41;;;18.83;62.34
70374;BME280;57792;49.198;7.890;2022-08-01T05:27:47;98900.19;;;18.74;62.74
70374;BME280;57792;49.198;7.890;2022-08-01T05:28:47;98905.38;;;18.77;62.87
70374;BME280;57792;49.198;7.890;2022-08-01T05:29:47;98904.41;;;18.78;62.68
70374;BME280;57792;49.198;7.890;2022-08-01T05:30:48;98902.69;;;18.77;62.75
70374;BME280;57792;49.198;7.890;2022-08-01T05:31:49;98898.41;;;18.86;62.49
70374;BME280;57792;49.198;7.890;2022-08-01T05:32:49;98896.91;;;18.82;62.69
70374;BME280;57792;49.198;7.890;2022-08-01T05:33:49;98909.34;;;18.84;62.58
70374;BME280;57792;49.198;7.890;2022-08-01T05:34:50;98903.88;;;18.73;62.67
70374;BME280;57792;49.198;7.890;2022-08-01T05:35:50;98900.69;;;18.92;62.40
70374;BME280;57792;49.198;7.890;2022-08-01T05:36:51;98902.19;;;18.96;62.57
70374;BME280;57792;49.198;7.890;2022-08-01T05:37:51;98902.09;;;18.97;62.55
70374;BME280;57792;49.198;7.890;2022-08-01T05:38:52;98902.03;;;19.23;61.87
70374;BME280;57792;49.198;7.890;2022-08-01T05:39:52;98908.19;;;19.49;61.09
70374;BME280;57792;49.198;7.890;2022-08-01T05:40:52;98909.88;;;19.62;60.73
70374;BME280;57792;49.198;7.890;2022-08-01T05:41:53;98904.22;;;19.65;60.74